sensor_id;sensor_type;location;lat;lon;timestamp;pressure;altitude;pressure_sealevel;temperature;humidity
11085;BME280;5596;46.826;8.650;2023-03-22T00:01:07;96167.25;;;9.42;100.00
11085;BME280;5596;46.826;8.650;2023-03-22T00:03:34;96167.41;;;9.47;100.00
11085;BME280;5596;46.826;8.650;2023-03-22T00:06:01;96171.13;;;9.46;100.00
11085;BME280;5596;46.826;8.650;2023-03-22T00:08:27;96168.00;;;9.49;100.00
11085;BME280;5596;46.826;8.650;2023-03-22T00:10:54;96169.66;;;9.50;100.00
11085;BME280;5596;46.826;8.650;2023-03-22T00:13:21;96162.97;;;9.53;100.00
11085;BME280;5596;46.826;8.650;2023-03-22T00:15:49;96168.50;;;9.58;100.00
11085;BME280;5596;46.826;8.650;2023-03-22T00:18:16;96165.47;;;9.66;100.00
11085;BME280;5596;46.826;8.650;2023-03-22T00:20:47;96163.88;;;9.76;100.00
11085;BME280;5596;46.826;8.650;2023-03-22T00:23:13;96148.06;;;9.80;99.89
11085;BME280;5596;46.826;8.650;2023-03-22T00:25:40;96151.22;;;9.77;100.00
11085;BME280;5596;46.826;8.650;2023-03-22T00:28:07;96148.75;;;9.75;100.00
11085;BME280;5596;46.826;8.650;2023-03-22T00:30:34;96139.03;;;9.74;100.00
11085;BME280;5596;46.826;8.650;2023-03-22T00:33:02;96139.63;;;9.76;100.00
11085;BME280;5596;46.826;8.650;2023-03-22T00:35:29;96125.09;;;9.77;99.48
11085;BME280;5596;46.826;8.650;2023-03-22T00:37:56;96126.72;;;9.78;99.45
11085;BME280;5596;46.826;8.650;2023-03-22T00:40:30;96125.09;;;9.77;99.01
11085;BME280;5596;46.826;8.650;2023-03-22T00:42:57;96108.44;;;9.80;97.27
11085;BME280;5596;46.826;8.650;2023-03-22T00:45:26;96099.19;;;9.88;95.98
11085;BME280;5596;46.826;8.650;2023-03-22T00:47:53;96086.66;;;9.94;95.51
11085;BME280;5596;46.826;8.650;2023-03-22T00:50:21;96100.50;;;9.97;94.57
11085;BME280;5596;46.826;8.650;2023-03-22T00:52:48;96096.06;;;10.03;94.63
11085;BME280;5596;46.826;8.650;2023-03-22T00:55:15;96081.97;;;10.01;94.36
11085;BME280;5596;46.826;8.650;2023-03-22T00:57:42;96083.63;;;10.02;94.08
11085;BME280;5596;46.826;8.650;2023-03-22T01:00:09;96086.88;;;10.04;93.44
11085;BME280;5596;46.826;8.650;2023-03-22T01:02:38;96088.31;;;10.06;93.38
11085;BME280;5596;46.826;8.650;2023-03-22T01:05:08;96088.91;;;10.08;94.32
11085;BME280;5596;46.826;8.650;2023-03-22T01:07:42;96094.66;;;10.12;93.75
11085;BME280;5596;46.826;8.650;2023-03-22T01:10:09;96089.84;;;10.14;94.11
11085;BME280;5596;46.826;8.650;2023-03-22T01:12:36;96094.78;;;10.17;93.11
11085;BME280;5596;46.826;8.650;2023-03-22T01:15:04;96099.16;;;10.18;91.74
11085;BME280;5596;46.826;8.650;2023-03-22T01:17:31;96088.94;;;10.20;91.50
11085;BME280;5596;46.826;8.650;2023-03-22T01:19:58;96079.22;;;10.19;93.17
11085;BME280;5596;46.826;8.650;2023-03-22T01:22:25;96079.63;;;10.16;95.05
11085;BME280;5596;46.826;8.650;2023-03-22T01:24:54;96073.09;;;10.12;94.45
11085;BME280;5596;46.826;8.650;2023-03-22T01:27:21;96061.22;;;10.13;93.62
11085;BME280;5596;46.826;8.650;2023-03-22T01:29:48;96063.56;;;10.09;96.04
11085;BME280;5596;46.826;8.650;2023-03-22T01:32:15;96054.66;;;10.09;95.64
11085;BME280;5596;46.826;8.650;2023-03-22T01:34:42;96039.06;;;10.11;94.92
11085;BME280;5596;46.826;8.650;2023-03-22T01:37:09;96038.56;;;10.14;92.00
11085;BME280;5596;46.826;8.650;2023-03-22T01:39:39;96035.66;;;10.15;90.76
11085;BME280;5596;46.826;8.650;2023-03-22T01:42:10;96036.28;;;10.17;91.21
11085;BME280;5596;46.826;8.650;2023-03-22T01:44:39;96037.09;;;10.18;90.90
11085;BME280;5596;46.826;8.650;2023-03-22T01:47:07;96033.78;;;10.16;91.41
11085;BME280;5596;46.826;8.650;2023-03-22T01:49:35;96038.81;;;10.12;91.27
11085;BME280;5596;46.826;8.650;2023-03-22T01:52:02;96042.31;;;10.13;92.33
11085;BME280;5596;46.826;8.650;2023-03-22T01:54:45;96044.19;;;10.12;92.97
11085;BME280;5596;46.826;8.650;2023-03-22T01:57:26;96048.81;;;10.12;93.46
11085;BME280;5596;46.826;8.650;2023-03-22T01:59:54;96060.66;;;10.11;93.92
11085;BME280;5596;46.826;8.650;2023-03-22T02:02:38;96051.81;;;10.04;94.71
11085;BME280;5596;46.826;8.650;2023-03-22T02:05:17;96042.78;;;9.98;94.97
11085;BME280;5596;46.826;8.650;2023-03-22T02:07:46;96051.00;;;9.92;95.71
11085;BME280;5596;46.826;8.650;2023-03-22T02:10:14;96057.09;;;9.87;96.97
11085;BME280;5596;46.826;8.650;2023-03-22T02:13:00;96043.94;;;9.79;98.21
11085;BME280;5596;46.826;8.650;2023-03-22T02:15:46;96035.47;;;9.52;100.00
11085;BME280;5596;46.826;8.650;2023-03-22T02:18:37;96032.53;;;9.42;100.00
11085;BME280;5596;46.826;8.650;2023-03-22T02:21:17;96025.81;;;9.33;100.00
11085;BME280;5596;46.826;8.650;2023-03-22T02:29:18;96039.22;;;9.09;100.00
11085;BME280;5596;46.826;8.650;2023-03-22T02:31:57;96036.91;;;8.95;100.00
11085;BME280;5596;46.826;8.650;2023-03-22T02:37:36;96044.63;;;8.91;100.00
11085;BME280;5596;46.826;8.650;2023-03-22T02:40:08;96036.69;;;8.96;100.00
11085;BME280;5596;46.826;8.650;2023-03-22T02:42:39;96042.53;;;8.93;100.00
11085;BME280;5596;46.826;8.650;2023-03-22T02:45:10;96034.94;;;8.72;100.00
11085;BME280;5596;46.826;8.650;2023-03-22T02:47:40;96040.19;;;8.67;100.00
11085;BME280;5596;46.826;8.650;2023-03-22T02:50:10;96037.13;;;8.63;100.00
11085;BME280;5596;46.826;8.650;2023-03-22T02:52:41;96035.69;;;8.61;100.00
11085;BME280;5596;46.826;8.650;2023-03-22T02:55:12;96054.69;;;8.48;100.00
11085;BME280;5596;46.826;8.650;2023-03-22T02:57:40;96059.25;;;8.47;100.00
11085;BME280;5596;46.826;8.650;2023-03-22T03:00:10;96059.47;;;8.46;100.00
11085;BME280;5596;46.826;8.650;2023-03-22T03:02:41;96059.41;;;8.27;100.00
11085;BME280;5596;46.826;8.650;2023-03-22T03:05:09;96063.66;;;8.17;100.00
11085;BME280;5596;46.826;8.650;2023-03-22T03:07:38;96066.81;;;8.14;100.00
11085;BME280;5596;46.826;8.650;2023-03-22T03:10:08;96067.44;;;8.09;100.00
11085;BME280;5596;46.826;8.650;2023-03-22T03:12:36;96072.00;;;8.09;100.00
11085;BME280;5596;46.826;8.650;2023-03-22T03:15:07;96069.09;;;8.10;100.00
11085;BME280;5596;46.826;8.650;2023-03-22T03:17:40;96064.56;;;8.11;100.00
11085;BME280;5596;46.826;8.650;2023-03-22T03:20:20;96072.47;;;8.06;100.00
11085;BME280;5596;46.826;8.650;2023-03-22T03:22:56;96072.28;;;8.01;100.00
11085;BME280;5596;46.826;8.650;2023-03-22T03:25:26;96076.69;;;7.95;100.00
11085;BME280;5596;46.826;8.650;2023-03-22T03:27:59;96070.34;;;7.89;100.00
11085;BME280;5596;46.826;8.650;2023-03-22T03:30:31;96073.91;;;7.83;100.00
11085;BME280;5596;46.826;8.650;2023-03-22T03:33:01;96073.94;;;7.77;100.00
11085;BME280;5596;46.826;8.650;2023-03-22T03:35:35;96081.41;;;7.75;100.00
11085;BME280;5596;46.826;8.650;2023-03-22T03:38:04;96075.81;;;7.76;100.00
11085;BME280;5596;46.826;8.650;2023-03-22T03:40:35;96082.84;;;7.77;100.00
11085;BME280;5596;46.826;8.650;2023-03-22T03:43:05;96086.75;;;7.81;100.00
11085;BME280;5596;46.826;8.650;2023-03-22T03:45:33;96082.56;;;7.85;100.00
11085;BME280;5596;46.826;8.650;2023-03-22T03:48:03;96092.69;;;7.90;100.00
11085;BME280;5596;46.826;8.650;2023-03-22T03:50:31;96099.31;;;7.87;100.00
11085;BME280;5596;46.826;8.650;2023-03-22T03:52:57;96098.63;;;7.67;100.00
11085;BME280;5596;46.826;8.650;2023-03-22T03:55:24;96104.75;;;7.49;100.00
11085;BME280;5596;46.826;8.650;2023-03-22T03:57:52;96112.22;;;7.41;100.00
11085;BME280;5596;46.826;8.650;2023-03-22T04:00:20;96117.59;;;7.41;100.00
11085;BME280;5596;46.826;8.650;2023-03-22T04:03:19;96118.63;;;7.46;100.00
11085;BME280;5596;46.826;8.650;2023-03-22T04:06:09;96112.22;;;7.47;100.00
11085;BME280;5596;46.826;8.650;2023-03-22T04:08:38;96107.47;;;7.43;100.00
11085;BME280;5596;46.826;8.650;2023-03-22T04:11:06;96109.59;;;7.34;100.00
11085;BME280;5596;46.826;8.650;2023-03-22T04:13:33;96114.41;;;7.26;100.00
11085;BME280;5596;46.826;8.650;2023-03-22T04:16:06;96117.28;;;7.24;100.00
11085;BME280;5596;46.826;8.650;2023-03-22T04:18:35;96117.75;;;7.21;100.00
11085;BME280;5596;46.826;8.650;2023-03-22T04:21:05;96118.31;;;7.23;100.00
11085;BME280;5596;46.826;8.650;2023-03-22T04:23:42;96111.91;;;7.24;100.00
11085;BME280;5596;46.826;8.650;2023-03-22T04:26:11;96106.28;;;7.32;100.00
11085;BME280;5596;46.826;8.650;2023-03-22T04:28:51;96111.88;;;7.37;100.00
11085;BME280;5596;46.826;8.650;2023-03-22T04:31:19;96122.16;;;7.40;100.00
11085;BME280;5596;46.826;8.650;2023-03-22T04:33:51;96117.41;;;7.42;100.00
11085;BME280;5596;46.826;8.650;2023-03-22T04:36:33;96116.38;;;7.43;100.00
11085;BME280;5596;46.826;8.650;2023-03-22T04:39:19;96112.63;;;7.44;100.00
11085;BME280;5596;46.826;8.650;2023-03-22T04:41:56;96118.88;;;7.38;100.00
11085;BME280;5596;46.826;8.650;2023-03-22T04:44:23;96107.94;;;7.40;100.00
11085;BME280;5596;46.826;8.650;2023-03-22T04:46:53;96118.44;;;7.41;100.00
11085;BME280;5596;46.826;8.650;2023-03-22T04:49:20;96120.53;;;7.39;100.00
11085;BME280;5596;46.826;8.650;2023-03-22T04:51:47;96109.44;;;7.29;100.00
11085;BME280;5596;46.826;8.650;2023-03-22T04:54:34;96114.06;;;7.09;100.00
11085;BME280;5596;46.826;8.650;2023-03-22T04:57:01;96106.22;;;7.07;100.00
11085;BME280;5596;46.826;8.650;2023-03-22T04:59:33;96102.72;;;7.07;100.00
11085;BME280;5596;46.826;8.650;2023-03-22T05:02:01;96098.41;;;7.06;100.00
11085;BME280;5596;46.826;8.650;2023-03-22T05:04:35;96093.25;;;7.04;100.00
11085;BME280;5596;46.826;8.650;2023-03-22T05:07:11;96094.28;;;7.03;100.00
11085;BME280;5596;46.826;8.650;2023-03-22T05:09:46;96095.16;;;6.97;100.00
11085;BME280;5596;46.826;8.650;2023-03-22T05:12:14;96086.06;;;6.92;100.00
11085;BME280;5596;46.826;8.650;2023-03-22T05:15:16;96092.91;;;6.81;100.00
11085;BME280;5596;46.826;8.650;2023-03-22T05:17:45;96085.69;;;6.81;100.00
11085;BME280;5596;46.826;8.650;2023-03-22T05:20:12;96087.97;;;6.84;100.00
11085;BME280;5596;46.826;8.650;2023-03-22T05:22:41;96087.31;;;6.89;100.00
11085;BME280;5596;46.826;8.650;2023-03-22T05:25:09;96080.91;;;6.90;100.00
11085;BME280;5596;46.826;8.650;2023-03-22T05:27:39;96084.63;;;6.96;100.00
11085;BME280;5596;46.826;8.650;2023-03-22T05:30:25;96080.88;;;7.03;100.00
11085;BME280;5596;46.826;8.650;2023-03-22T05:33:02;96087.66;;;7.06;100.00
11085;BME280;5596;46.826;8.650;2023-03-22T05:35:36;96089.94;;;7.02;100.00
11085;BME280;5596;46.826;8.650;2023-03-22T05:38:03;96096.16;;;7.03;100.00
11085;BME280;5596;46.826;8.650;2023-03-22T05:40:33;96096.09;;;7.09;100.00
11085;BME280;5596;46.826;8.650;2023-03-22T05:43:01;96095.22;;;7.22;100.00
11085;BME280;5596;46.826;8.650;2023-03-22T05:45:28;96107.47;;;7.43;100.00
11085;BME280;5596;46.826;8.650;2023-03-22T05:48:06;96104.56;;;7.44;100.00
11085;BME280;5596;46.826;8.650;2023-03-22T05:50:34;96121.31;;;7.46;100.00
11085;BME280;5596;46.826;8.650;2023-03-22T05:53:01;96118.06;;;7.38;100.00
11085;BME280;5596;46.826;8.650;2023-03-22T05:55:33;96121.41;;;7.27;100.00
11085;BME280;5596;46.826;8.650;2023-03-22T05:58:02;96123.09;;;7.21;100.00
11085;BME280;5596;46.826;8.650;2023-03-22T06:00:35;96125.78;;;7.21;100.00
11085;BME280;5596;46.826;8.650;2023-03-22T06:03:22;96125.78;;;7.21;100.00
11085;BME280;5596;46.826;8.650;2023-03-22T06:06:06;96128.13;;;7.11;100.00
11085;BME280;5596;46.826;8.650;2023-03-22T06:09:01;96120.75;;;6.93;100.00
11085;BME280;5596;46.826;8.650;2023-03-22T06:11:28;96119.97;;;6.86;100.00
11085;BME280;5596;46.826;8.650;2023-03-22T06:13:58;96123.47;;;6.87;100.00
11085;BME280;5596;46.826;8.650;2023-03-22T06:16:32;96124.88;;;6.89;100.00
11085;BME280;5596;46.826;8.650;2023-03-22T06:19:01;96122.81;;;6.91;100.00
11085;BME280;5596;46.826;8.650;2023-03-22T06:21:28;96129.22;;;6.90;100.00
11085;BME280;5596;46.826;8.650;2023-03-22T06:23:55;96129.88;;;6.86;100.00
11085;BME280;5596;46.826;8.650;2023-03-22T06:26:22;96121.63;;;6.80;100.00
11085;BME280;5596;46.826;8.650;2023-03-22T06:28:49;96120.81;;;6.73;100.00
11085;BME280;5596;46.826;8.650;2023-03-22T06:31:16;96123.09;;;6.76;100.00
11085;BME280;5596;46.826;8.650;2023-03-22T06:33:48;96117.53;;;6.78;100.00
11085;BME280;5596;46.826;8.650;2023-03-22T06:36:26;96115.44;;;6.73;100.00
11085;BME280;5596;46.826;8.650;2023-03-22T06:39:06;96114.88;;;6.71;100.00
11085;BME280;5596;46.826;8.650;2023-03-22T06:41:33;96110.94;;;6.67;100.00
11085;BME280;5596;46.826;8.650;2023-03-22T06:44:00;96114.88;;;6.65;100.00
11085;BME280;5596;46.826;8.650;2023-03-22T06:46:41;96111.34;;;6.64;100.00
11085;BME280;5596;46.826;8.650;2023-03-22T06:49:16;96110.75;;;6.69;100.00
11085;BME280;5596;46.826;8.650;2023-03-22T06:51:45;96108.44;;;6.79;100.00
11085;BME280;5596;46.826;8.650;2023-03-22T06:54:12;96110.66;;;6.89;100.00
11085;BME280;5596;46.826;8.650;2023-03-22T06:56:40;96108.94;;;7.01;100.00
11085;BME280;5596;46.826;8.650;2023-03-22T06:59:07;96097.53;;;7.12;100.00
11085;BME280;5596;46.826;8.650;2023-03-22T07:01:34;96097.91;;;7.22;100.00
11085;BME280;5596;46.826;8.650;2023-03-22T07:04:01;96092.09;;;7.25;100.00
11085;BME280;5596;46.826;8.650;2023-03-22T07:06:28;96088.38;;;7.26;100.00
11085;BME280;5596;46.826;8.650;2023-03-22T07:08:56;96099.72;;;7.28;100.00
11085;BME280;5596;46.826;8.650;2023-03-22T07:11:28;96095.59;;;7.26;100.00
11085;BME280;5596;46.826;8.650;2023-03-22T07:13:58;96089.84;;;7.22;100.00
11085;BME280;5596;46.826;8.650;2023-03-22T07:16:36;96089.66;;;7.17;100.00
11085;BME280;5596;46.826;8.650;2023-03-22T07:19:05;96083.88;;;7.20;100.00
11085;BME280;5596;46.826;8.650;2023-03-22T07:21:32;96083.41;;;7.23;100.00
11085;BME280;5596;46.826;8.650;2023-03-22T07:24:05;96083.97;;;7.32;100.00
11085;BME280;5596;46.826;8.650;2023-03-22T07:26:36;96077.97;;;7.36;100.00
11085;BME280;5596;46.826;8.650;2023-03-22T07:29:03;96083.97;;;7.38;100.00
11085;BME280;5596;46.826;8.650;2023-03-22T07:31:32;96077.56;;;7.39;100.00
11085;BME280;5596;46.826;8.650;2023-03-22T07:34:03;96075.28;;;7.36;100.00
11085;BME280;5596;46.826;8.650;2023-03-22T07:36:38;96077.97;;;7.36;100.00
11085;BME280;5596;46.826;8.650;2023-03-22T07:39:12;96081.28;;;7.38;100.00
11085;BME280;5596;46.826;8.650;2023-03-22T07:41:43;96078.97;;;7.42;100.00
11085;BME280;5596;46.826;8.650;2023-03-22T07:44:36;96091.41;;;7.36;100.00
11085;BME280;5596;46.826;8.650;2023-03-22T07:47:18;96091.63;;;7.35;100.00
11085;BME280;5596;46.826;8.650;2023-03-22T07:50:08;96098.69;;;7.29;100.00
11085;BME280;5596;46.826;8.650;2023-03-22T07:52:36;96097.03;;;7.28;100.00
11085;BME280;5596;46.826;8.650;2023-03-22T07:55:05;96101.19;;;7.24;100.00
11085;BME280;5596;46.826;8.650;2023-03-22T07:57:32;96104.09;;;7.22;100.00
11085;BME280;5596;46.826;8.650;2023-03-22T07:59:59;96100.59;;;7.22;100.00
11085;BME280;5596;46.826;8.650;2023-03-22T08:02:40;96101.19;;;7.24;100.00
11085;BME280;5596;46.826;8.650;2023-03-22T08:05:16;96101.19;;;7.24;100.00
11085;BME280;5596;46.826;8.650;2023-03-22T08:07:44;96097.88;;;7.29;100.00
11085;BME280;5596;46.826;8.650;2023-03-22T08:10:13;96104.69;;;7.31;100.00
11085;BME280;5596;46.826;8.650;2023-03-22T08:12:40;96098.84;;;7.34;100.00
11085;BME280;5596;46.826;8.650;2023-03-22T08:15:16;96094.91;;;7.37;100.00
11085;BME280;5596;46.826;8.650;2023-03-22T08:17:43;96088.66;;;7.43;100.00
11085;BME280;5596;46.826;8.650;2023-03-22T08:20:15;96085.78;;;7.44;100.00
11085;BME280;5596;46.826;8.650;2023-03-22T08:22:48;96089.22;;;7.51;100.00
11085;BME280;5596;46.826;8.650;2023-03-22T08:25:19;96081.09;;;7.65;100.00
11085;BME280;5596;46.826;8.650;2023-03-22T08:27:46;96066.16;;;7.93;100.00
11085;BME280;5596;46.826;8.650;2023-03-22T08:30:13;96071.69;;;8.23;100.00
11085;BME280;5596;46.826;8.650;2023-03-22T08:32:41;96066.81;;;8.57;100.00
11085;BME280;5596;46.826;8.650;2023-03-22T08:35:08;96061.25;;;8.88;100.00
11085;BME280;5596;46.826;8.650;2023-03-22T08:37:35;96063.38;;;9.28;100.00
11085;BME280;5596;46.826;8.650;2023-03-22T08:40:05;96059.63;;;9.59;100.00
11085;BME280;5596;46.826;8.650;2023-03-22T08:42:40;96060.03;;;9.85;99.21
11085;BME280;5596;46.826;8.650;2023-03-22T08:45:07;96064.72;;;10.13;94.90
11085;BME280;5596;46.826;8.650;2023-03-22T08:47:40;96064.28;;;10.40;92.09
11085;BME280;5596;46.826;8.650;2023-03-22T08:50:07;96060.41;;;10.71;90.87
11085;BME280;5596;46.826;8.650;2023-03-22T08:52:50;96070.97;;;11.12;86.05
11085;BME280;5596;46.826;8.650;2023-03-22T08:55:26;96062.22;;;11.50;82.23
11085;BME280;5596;46.826;8.650;2023-03-22T08:58:10;96058.84;;;11.88;79.64
11085;BME280;5596;46.826;8.650;2023-03-22T09:00:56;96053.84;;;12.13;77.35
11085;BME280;5596;46.826;8.650;2023-03-22T09:03:40;96052.66;;;12.43;76.75
11085;BME280;5596;46.826;8.650;2023-03-22T09:06:08;96043.72;;;12.81;73.78
11085;BME280;5596;46.826;8.650;2023-03-22T09:08:37;96042.19;;;13.12;69.37
11085;BME280;5596;46.826;8.650;2023-03-22T09:11:12;96036.25;;;13.37;66.22
11085;BME280;5596;46.826;8.650;2023-03-22T09:13:42;96021.47;;;13.49;64.70
11085;BME280;5596;46.826;8.650;2023-03-22T09:16:09;96021.63;;;13.64;63.29
11085;BME280;5596;46.826;8.650;2023-03-22T09:18:37;96019.81;;;13.75;62.52
11085;BME280;5596;46.826;8.650;2023-03-22T09:21:10;96015.84;;;13.88;62.36
11085;BME280;5596;46.826;8.650;2023-03-22T09:23:49;96013.31;;;14.13;60.34
11085;BME280;5596;46.826;8.650;2023-03-22T09:26:17;96000.38;;;14.20;58.90
11085;BME280;5596;46.826;8.650;2023-03-22T09:28:49;95993.91;;;14.31;58.26
11085;BME280;5596;46.826;8.650;2023-03-22T09:31:16;95984.78;;;14.43;57.57
11085;BME280;5596;46.826;8.650;2023-03-22T09:33:43;95982.13;;;14.53;56.25
11085;BME280;5596;46.826;8.650;2023-03-22T09:36:10;95984.63;;;14.69;59.19
11085;BME280;5596;46.826;8.650;2023-03-22T09:38:38;95988.50;;;14.89;58.80
11085;BME280;5596;46.826;8.650;2023-03-22T09:41:06;95981.75;;;14.96;57.86
11085;BME280;5596;46.826;8.650;2023-03-22T09:43:37;95986.66;;;14.99;55.99
11085;BME280;5596;46.826;8.650;2023-03-22T09:46:12;95983.16;;;15.09;56.66
11085;BME280;5596;46.826;8.650;2023-03-22T09:48:41;95984.56;;;15.27;56.04
11085;BME280;5596;46.826;8.650;2023-03-22T09:51:12;95982.41;;;15.39;56.23
11085;BME280;5596;46.826;8.650;2023-03-22T09:53:42;95980.75;;;15.33;57.78
11085;BME280;5596;46.826;8.650;2023-03-22T09:56:11;95984.88;;;15.50;57.58
11085;BME280;5596;46.826;8.650;2023-03-22T09:58:42;95982.47;;;15.74;59.12
11085;BME280;5596;46.826;8.650;2023-03-22T10:01:15;95979.75;;;15.79;62.76
11085;BME280;5596;46.826;8.650;2023-03-22T10:03:53;95980.88;;;15.99;64.83
11085;BME280;5596;46.826;8.650;2023-03-22T10:06:25;95981.41;;;16.16;65.84
11085;BME280;5596;46.826;8.650;2023-03-22T10:08:55;95975.94;;;16.06;65.95
11085;BME280;5596;46.826;8.650;2023-03-22T10:11:24;95977.31;;;16.13;65.77
11085;BME280;5596;46.826;8.650;2023-03-22T10:13:59;95976.19;;;16.09;63.47
11085;BME280;5596;46.826;8.650;2023-03-22T10:16:30;95967.75;;;16.11;63.59
11085;BME280;5596;46.826;8.650;2023-03-22T10:19:00;95966.94;;;16.20;63.16
11085;BME280;5596;46.826;8.650;2023-03-22T10:21:30;95971.00;;;16.28;61.67
11085;BME280;5596;46.826;8.650;2023-03-22T10:23:58;95974.25;;;16.45;61.03
11085;BME280;5596;46.826;8.650;2023-03-22T10:26:27;95966.03;;;16.50;58.34
11085;BME280;5596;46.826;8.650;2023-03-22T10:28:56;95967.16;;;16.49;56.60
11085;BME280;5596;46.826;8.650;2023-03-22T10:31:25;95970.41;;;16.56;56.00
11085;BME280;5596;46.826;8.650;2023-03-22T10:33:54;95963.06;;;16.67;55.10
11085;BME280;5596;46.826;8.650;2023-03-22T10:36:25;95969.50;;;16.91;54.69
11085;BME280;5596;46.826;8.650;2023-03-22T10:38:55;95975.56;;;16.73;55.98
11085;BME280;5596;46.826;8.650;2023-03-22T10:41:24;95963.25;;;16.81;53.45
11085;BME280;5596;46.826;8.650;2023-03-22T10:43:53;95970.56;;;17.00;53.23
11085;BME280;5596;46.826;8.650;2023-03-22T10:46:22;95961.00;;;16.98;52.03
11085;BME280;5596;46.826;8.650;2023-03-22T10:48:55;95966.38;;;17.13;53.37
11085;BME280;5596;46.826;8.650;2023-03-22T10:51:24;95959.13;;;17.43;52.49
11085;BME280;5596;46.826;8.650;2023-03-22T10:53:52;95955.81;;;17.46;51.58
11085;BME280;5596;46.826;8.650;2023-03-22T10:56:20;95953.53;;;17.63;51.39
11085;BME280;5596;46.826;8.650;2023-03-22T10:58:47;95949.09;;;17.77;48.63
11085;BME280;5596;46.826;8.650;2023-03-22T11:01:15;95956.88;;;17.89;49.50
11085;BME280;5596;46.826;8.650;2023-03-22T11:03:50;95946.16;;;17.97;48.76
11085;BME280;5596;46.826;8.650;2023-03-22T11:06:19;95944.22;;;18.03;49.22
11085;BME280;5596;46.826;8.650;2023-03-22T11:08:49;61776.25;;;-141.59;100.00
11085;BME280;5596;46.826;8.650;2023-03-22T11:11:19;61776.25;;;-141.59;100.00
11085;BME280;5596;46.826;8.650;2023-03-22T11:13:50;61776.25;;;-141.59;100.00
11085;BME280;5596;46.826;8.650;2023-03-22T11:16:18;61776.25;;;-141.59;100.00
11085;BME280;5596;46.826;8.650;2023-03-22T11:18:45;61776.25;;;-141.59;100.00
11085;BME280;5596;46.826;8.650;2023-03-22T11:21:12;61776.25;;;-141.59;100.00
11085;BME280;5596;46.826;8.650;2023-03-22T11:23:44;61776.25;;;-141.59;100.00
11085;BME280;5596;46.826;8.650;2023-03-22T11:26:13;61776.25;;;-141.59;100.00
11085;BME280;5596;46.826;8.650;2023-03-22T11:28:50;61776.25;;;-141.59;100.00
11085;BME280;5596;46.826;8.650;2023-03-22T11:31:17;61776.25;;;-141.59;100.00
11085;BME280;5596;46.826;8.650;2023-03-22T11:33:53;61776.25;;;-141.59;100.00
11085;BME280;5596;46.826;8.650;2023-03-22T11:36:20;61776.25;;;-141.59;100.00
11085;BME280;5596;46.826;8.650;2023-03-22T11:38:54;61776.25;;;-141.59;100.00
11085;BME280;5596;46.826;8.650;2023-03-22T11:41:22;61776.25;;;-141.59;100.00
11085;BME280;5596;46.826;8.650;2023-03-22T11:43:50;61776.25;;;-141.59;100.00
11085;BME280;5596;46.826;8.650;2023-03-22T11:46:18;61776.25;;;-141.59;100.00
11085;BME280;5596;46.826;8.650;2023-03-22T11:48:46;61776.25;;;-141.59;100.00
11085;BME280;5596;46.826;8.650;2023-03-22T11:51:14;61776.25;;;-141.59;100.00
11085;BME280;5596;46.826;8.650;2023-03-22T11:53:42;61776.25;;;-141.59;100.00
11085;BME280;5596;46.826;8.650;2023-03-22T11:56:14;61776.25;;;-141.59;100.00
11085;BME280;5596;46.826;8.650;2023-03-22T11:58:44;61776.25;;;-141.59;100.00
11085;BME280;5596;46.826;8.650;2023-03-22T12:01:14;61776.25;;;-141.59;100.00
11085;BME280;5596;46.826;8.650;2023-03-22T12:03:44;61776.25;;;-141.59;100.00
11085;BME280;5596;46.826;8.650;2023-03-22T12:06:14;61776.25;;;-141.59;100.00
11085;BME280;5596;46.826;8.650;2023-03-22T12:08:44;61776.25;;;-141.59;100.00
11085;BME280;5596;46.826;8.650;2023-03-22T12:11:14;61776.25;;;-141.59;100.00
11085;BME280;5596;46.826;8.650;2023-03-22T12:13:43;61776.25;;;-141.59;100.00
11085;BME280;5596;46.826;8.650;2023-03-22T12:16:12;61776.25;;;-141.59;100.00
11085;BME280;5596;46.826;8.650;2023-03-22T12:18:40;61776.25;;;-141.59;100.00
11085;BME280;5596;46.826;8.650;2023-03-22T12:21:11;61776.25;;;-141.59;100.00
11085;BME280;5596;46.826;8.650;2023-03-22T12:23:37;61776.25;;;-141.59;100.00
11085;BME280;5596;46.826;8.650;2023-03-22T12:26:05;61776.25;;;-141.59;100.00
11085;BME280;5596;46.826;8.650;2023-03-22T12:28:34;61776.25;;;-141.59;100.00
11085;BME280;5596;46.826;8.650;2023-03-22T12:31:05;61776.25;;;-141.59;100.00
11085;BME280;5596;46.826;8.650;2023-03-22T12:33:34;61776.25;;;-141.59;100.00
11085;BME280;5596;46.826;8.650;2023-03-22T12:36:03;61776.25;;;-141.59;100.00
11085;BME280;5596;46.826;8.650;2023-03-22T12:38:34;61776.25;;;-141.59;100.00
11085;BME280;5596;46.826;8.650;2023-03-22T12:41:04;61776.25;;;-141.59;100.00
11085;BME280;5596;46.826;8.650;2023-03-22T12:43:40;61776.25;;;-141.59;100.00
11085;BME280;5596;46.826;8.650;2023-03-22T12:46:09;61776.25;;;-141.59;100.00
11085;BME280;5596;46.826;8.650;2023-03-22T12:48:41;61776.25;;;-141.59;100.00
11085;BME280;5596;46.826;8.650;2023-03-22T12:51:10;61776.25;;;-141.59;100.00
11085;BME280;5596;46.826;8.650;2023-03-22T12:53:39;61776.25;;;-141.59;100.00
11085;BME280;5596;46.826;8.650;2023-03-22T12:56:10;61776.25;;;-141.59;100.00
11085;BME280;5596;46.826;8.650;2023-03-22T12:58:39;61776.25;;;-141.59;100.00
11085;BME280;5596;46.826;8.650;2023-03-22T13:01:15;61776.25;;;-141.59;100.00
11085;BME280;5596;46.826;8.650;2023-03-22T13:03:45;61776.25;;;-141.59;100.00
11085;BME280;5596;46.826;8.650;2023-03-22T13:06:28;61776.25;;;-141.59;100.00
11085;BME280;5596;46.826;8.650;2023-03-22T13:09:09;61776.25;;;-141.59;100.00
11085;BME280;5596;46.826;8.650;2023-03-22T13:11:40;61776.25;;;-141.59;100.00
11085;BME280;5596;46.826;8.650;2023-03-22T13:14:08;61776.25;;;-141.59;100.00
11085;BME280;5596;46.826;8.650;2023-03-22T13:16:50;61776.25;;;-141.59;100.00
11085;BME280;5596;46.826;8.650;2023-03-22T13:19:26;61776.25;;;-141.59;100.00
11085;BME280;5596;46.826;8.650;2023-03-22T13:27:21;61776.25;;;-141.59;100.00
11085;BME280;5596;46.826;8.650;2023-03-22T13:29:49;61776.25;;;-141.59;100.00
11085;BME280;5596;46.826;8.650;2023-03-22T13:32:24;61776.25;;;-141.59;100.00
11085;BME280;5596;46.826;8.650;2023-03-22T13:34:54;61776.25;;;-141.59;100.00
11085;BME280;5596;46.826;8.650;2023-03-22T13:37:21;61776.25;;;-141.59;100.00
11085;BME280;5596;46.826;8.650;2023-03-22T13:39:56;61776.25;;;-141.59;100.00